Time;durP1;ratioP1;P1;durP2;ratioP2;P2;SDS_P1;SDS_P2;PMS_P1;PMS_P2;Temp;Humidity;BMP_temperature;BMP_pressure;BME280_temperature;BME280_humidity;BME280_pressure;Samples;Min_cycle;Max_cycle;Signal;HPM_P1;HPM_P2
2023/06/22 00:00:57;;;;;;;10.32;7.25;;;;;;;;;;5055788;28;20036;-60
2023/06/22 00:03:24;;;;;;;10.93;7.03;;;;;;;;;;5055425;28;20025;-59
2023/06/22 00:05:51;;;;;;;14.05;7.88;;;;;;;;;;5055788;28;20044;-60
2023/06/22 00:08:18;;;;;;;8.52;7.18;;;;;;;;;;5055651;28;20389;-61
2023/06/22 00:10:45;;;;;;;11.30;7.35;;;;;;;;;;5055385;28;20033;-60
2023/06/22 00:13:12;;;;;;;10.68;6.80;;;;;;;;;;5055147;28;20401;-60
2023/06/22 00:15:40;;;;;;;11.15;7.60;;;;;;;;;;5054648;28;20486;-60
2023/06/22 00:18:07;;;;;;;9.73;7.07;;;;;;;;;;5054289;28;20094;-61
2023/06/22 00:20:33;;;;;;;9.60;7.28;;;;;;;;;;5054894;28;20048;-61
2023/06/22 00:23:00;;;;;;;11.60;7.43;;;;;;;;;;5054757;28;20086;-60
2023/06/22 00:25:26;;;;;;;10.65;7.95;;;;;;;;;;5054883;28;20032;-60
2023/06/22 00:27:51;;;;;;;9.57;7.18;;;;;;;;;;5053833;28;20028;-61
2023/06/22 00:30:18;;;;;;;11.57;7.18;;;;;;;;;;5055499;28;20027;-60
2023/06/22 00:32:44;;;;;;;10.43;7.28;;;;;;;;;;5054974;28;20044;-60
2023/06/22 00:35:12;;;;;;;9.90;7.30;;;;;;;;;;5055183;28;20021;-60
2023/06/22 00:37:40;;;;;;;11.65;7.20;;;;;;;;;;5054974;28;20040;-60
2023/06/22 00:40:07;;;;;;;10.82;7.22;;;;;;;;;;5055561;28;20350;-60
2023/06/22 00:42:33;;;;;;;10.98;7.18;;;;;;;;;;5055219;28;20111;-60
2023/06/22 00:44:58;;;;;;;12.13;7.80;;;;;;;;;;5054466;28;20021;-59
2023/06/22 00:47:24;;;;;;;8.40;7.30;;;;;;;;;;5054839;28;20033;-59
2023/06/22 00:49:53;;;;;;;9.38;7.10;;;;;;;;;;5054871;28;20028;-59
2023/06/22 00:52:27;;;;;;;10.60;7.28;;;;;;;;;;5054647;28;20021;-61
2023/06/22 00:54:53;;;;;;;9.30;7.05;;;;;;;;;;5054810;28;20033;-61
2023/06/22 00:57:20;;;;;;;11.10;7.43;;;;;;;;;;5054588;28;20484;-60
2023/06/22 00:59:47;;;;;;;8.88;7.47;;;;;;;;;;5054900;28;20389;-61
2023/06/22 01:02:13;;;;;;;10.82;7.25;;;;;;;;;;5054515;28;20058;-60
2023/06/22 01:04:40;;;;;;;10.43;7.10;;;;;;;;;;5054528;28;20021;-59
2023/06/22 01:07:27;;;;;;;8.65;7.45;;;;;;;;;;5054355;28;20476;-61
2023/06/22 01:10:37;;;;;;;8.98;6.88;;;;;;;;;;5054757;28;20064;-61
2023/06/22 01:13:07;;;;;;;10.77;6.88;;;;;;;;;;5054140;28;20028;-61
2023/06/22 01:15:40;;;;;;;8.65;6.75;;;;;;;;;;5054353;28;20039;-60
2023/06/22 01:18:07;;;;;;;11.02;7.35;;;;;;;;;;5054157;28;20029;-60
2023/06/22 01:20:35;;;;;;;10.18;7.50;;;;;;;;;;5054476;28;20100;-60
2023/06/22 01:23:35;;;;;;;10.95;6.90;;;;;;;;;;5054210;28;20056;-61
2023/06/22 01:26:06;;;;;;;10.52;7.55;;;;;;;;;;5054204;28;20021;-61
2023/06/22 01:28:51;;;;;;;14.40;7.65;;;;;;;;;;5054388;28;20047;-61
2023/06/22 01:31:20;;;;;;;10.95;7.15;;;;;;;;;;5053836;28;20035;-60
2023/06/22 01:33:52;;;;;;;9.10;6.97;;;;;;;;;;5054051;28;20094;-61
2023/06/22 01:36:19;;;;;;;9.25;7.15;;;;;;;;;;5053831;28;20096;-59
2023/06/22 01:38:46;;;;;;;9.52;7.07;;;;;;;;;;5052679;28;20033;-61
2023/06/22 01:41:13;;;;;;;10.20;7.07;;;;;;;;;;5053823;28;20029;-60
2023/06/22 01:43:39;;;;;;;11.05;6.90;;;;;;;;;;5053846;28;20049;-59
2023/06/22 01:46:04;;;;;;;10.15;7.05;;;;;;;;;;5053943;28;20056;-60
2023/06/22 01:48:31;;;;;;;9.05;6.63;;;;;;;;;;5053697;28;20377;-60
2023/06/22 01:50:57;;;;;;;8.00;6.85;;;;;;;;;;5053562;28;20025;-60
2023/06/22 01:53:23;;;;;;;11.68;7.22;;;;;;;;;;5053602;28;20021;-59
2023/06/22 01:55:49;;;;;;;8.85;6.95;;;;;;;;;;5053405;28;20068;-60
2023/06/22 01:58:15;;;;;;;11.98;6.57;;;;;;;;;;5052768;28;20458;-61
2023/06/22 02:00:47;;;;;;;8.45;6.75;;;;;;;;;;5052255;28;20052;-60
2023/06/22 02:03:21;;;;;;;7.22;6.43;;;;;;;;;;5053466;28;20075;-61
2023/06/22 02:05:54;;;;;;;8.75;6.43;;;;;;;;;;5052092;28;20029;-60
2023/06/22 02:08:22;;;;;;;9.27;6.85;;;;;;;;;;5053334;28;20442;-60
2023/06/22 02:10:50;;;;;;;10.25;6.95;;;;;;;;;;5053231;28;20063;-59
2023/06/22 02:13:17;;;;;;;9.75;7.22;;;;;;;;;;5053317;28;20021;-59
2023/06/22 02:15:43;;;;;;;9.30;6.68;;;;;;;;;;5053469;28;20483;-59
2023/06/22 02:18:09;;;;;;;11.43;7.20;;;;;;;;;;5053032;28;20119;-59
2023/06/22 02:20:38;;;;;;;9.75;7.10;;;;;;;;;;5053070;28;20112;-59
2023/06/22 02:23:03;;;;;;;8.40;7.22;;;;;;;;;;5053052;28;20021;-59
2023/06/22 02:25:29;;;;;;;10.05;7.20;;;;;;;;;;5052986;28;20029;-61
2023/06/22 02:27:54;;;;;;;9.40;6.60;;;;;;;;;;5052976;28;20302;-61
2023/06/22 02:30:20;;;;;;;9.93;6.90;;;;;;;;;;5052912;28;20029;-61
2023/06/22 02:32:45;;;;;;;10.98;6.88;;;;;;;;;;5052729;28;20048;-60
2023/06/22 02:35:11;;;;;;;12.75;6.75;;;;;;;;;;5052852;28;20108;-60
2023/06/22 02:37:43;;;;;;;10.10;6.75;;;;;;;;;;5052771;28;20029;-60
2023/06/22 02:40:10;;;;;;;9.57;6.90;;;;;;;;;;5052768;28;20055;-60
2023/06/22 02:42:36;;;;;;;11.02;6.88;;;;;;;;;;5052731;28;20385;-59
2023/06/22 02:45:02;;;;;;;9.55;7.20;;;;;;;;;;5052692;28;20025;-59
2023/06/22 02:47:28;;;;;;;11.27;7.10;;;;;;;;;;5052569;28;20039;-60
2023/06/22 02:49:53;;;;;;;8.98;6.80;;;;;;;;;;5052934;28;20025;-60
2023/06/22 02:52:19;;;;;;;9.57;6.88;;;;;;;;;;5052585;28;20400;-60
2023/06/22 02:54:47;;;;;;;12.40;6.53;;;;;;;;;;5052557;28;20457;-59
2023/06/22 02:57:13;;;;;;;8.43;6.85;;;;;;;;;;5052721;28;20108;-60
2023/06/22 02:59:41;;;;;;;10.45;7.07;;;;;;;;;;5052469;28;20020;-60
2023/06/22 03:02:07;;;;;;;9.70;7.25;;;;;;;;;;5052488;28;20021;-60
2023/06/22 03:04:34;;;;;;;8.02;6.63;;;;;;;;;;5052715;28;20036;-61
2023/06/22 03:07:00;;;;;;;9.30;6.45;;;;;;;;;;5052304;28;20036;-61
2023/06/22 03:09:27;;;;;;;10.23;7.20;;;;;;;;;;5052455;28;20113;-60
2023/06/22 03:11:56;;;;;;;9.15;7.18;;;;;;;;;;5052197;28;20531;-59
2023/06/22 03:14:21;;;;;;;7.97;6.78;;;;;;;;;;5052572;28;20040;-59
2023/06/22 03:16:47;;;;;;;8.93;7.07;;;;;;;;;;5052104;28;20481;-59
2023/06/22 03:19:13;;;;;;;9.13;6.85;;;;;;;;;;5052316;28;20029;-59
2023/06/22 03:21:40;;;;;;;8.95;6.65;;;;;;;;;;5052173;28;20021;-59
2023/06/22 03:24:06;;;;;;;7.82;6.93;;;;;;;;;;5052220;28;20075;-59
2023/06/22 03:26:32;;;;;;;10.02;7.03;;;;;;;;;;5052032;28;20029;-60
2023/06/22 03:28:58;;;;;;;7.80;7.00;;;;;;;;;;5052152;28;20032;-59
2023/06/22 03:31:26;;;;;;;10.43;6.85;;;;;;;;;;5051880;28;20025;-59
2023/06/22 03:33:52;;;;;;;7.63;6.80;;;;;;;;;;5052103;28;20029;-60
2023/06/22 03:36:22;;;;;;;10.10;6.95;;;;;;;;;;5051943;28;20098;-59
2023/06/22 03:38:49;;;;;;;7.65;6.10;;;;;;;;;;5052005;28;20035;-60
2023/06/22 03:41:15;;;;;;;8.93;6.90;;;;;;;;;;5052070;28;20150;-59
2023/06/22 03:43:41;;;;;;;7.63;6.47;;;;;;;;;;5052031;28;20056;-61
2023/06/22 03:46:06;;;;;;;7.10;6.40;;;;;;;;;;5051953;28;20099;-60
2023/06/22 03:48:32;;;;;;;16.25;6.28;;;;;;;;;;5051935;28;20069;-60
2023/06/22 03:50:59;;;;;;;8.23;6.18;;;;;;;;;;5051905;28;20029;-59
2023/06/22 03:53:25;;;;;;;9.32;6.50;;;;;;;;;;5051925;28;20063;-60
2023/06/22 03:55:52;;;;;;;9.73;6.80;;;;;;;;;;5051900;28;20053;-59
2023/06/22 03:58:19;;;;;;;8.45;6.60;;;;;;;;;;5051805;28;20021;-59
2023/06/22 04:00:47;;;;;;;8.23;6.80;;;;;;;;;;5051063;28;20198;-60
2023/06/22 04:03:13;;;;;;;7.95;6.43;;;;;;;;;;5050620;28;20021;-59
2023/06/22 04:05:39;;;;;;;7.88;6.70;;;;;;;;;;5051668;28;20108;-59
2023/06/22 04:08:05;;;;;;;8.00;5.95;;;;;;;;;;5052172;28;20113;-60
2023/06/22 04:10:31;;;;;;;8.68;6.57;;;;;;;;;;5052047;28;20461;-59
2023/06/22 04:12:56;;;;;;;8.82;6.38;;;;;;;;;;5051780;28;20096;-59
2023/06/22 04:15:22;;;;;;;8.45;6.93;;;;;;;;;;5051633;28;20388;-59
2023/06/22 04:17:47;;;;;;;7.07;6.28;;;;;;;;;;5051622;28;20059;-59
2023/06/22 04:20:13;;;;;;;7.97;6.55;;;;;;;;;;5052853;28;20086;-60
2023/06/22 04:22:38;;;;;;;8.15;6.53;;;;;;;;;;5055395;28;20100;-59
2023/06/22 04:25:07;;;;;;;7.82;6.30;;;;;;;;;;5055238;28;20044;-59
2023/06/22 04:27:36;;;;;;;8.80;6.30;;;;;;;;;;5055290;28;20112;-60
2023/06/22 04:30:04;;;;;;;6.90;6.03;;;;;;;;;;5052365;28;20086;-60
2023/06/22 04:32:29;;;;;;;9.02;7.18;;;;;;;;;;5054981;28;20116;-60
2023/06/22 04:34:55;;;;;;;7.15;5.88;;;;;;;;;;5055138;28;20519;-60
2023/06/22 04:37:23;;;;;;;6.97;5.93;;;;;;;;;;5054331;28;20658;-60
2023/06/22 04:39:49;;;;;;;7.50;6.20;;;;;;;;;;5053586;28;20036;-60
2023/06/22 04:42:15;;;;;;;6.82;6.10;;;;;;;;;;5053284;28;20025;-60
2023/06/22 04:44:42;;;;;;;9.52;6.40;;;;;;;;;;5053369;28;20085;-59
2023/06/22 04:47:08;;;;;;;8.80;6.68;;;;;;;;;;5053052;28;20021;-60
2023/06/22 04:49:37;;;;;;;8.90;6.32;;;;;;;;;;5052971;28;20021;-60
2023/06/22 04:52:07;;;;;;;7.00;6.10;;;;;;;;;;5052901;28;20152;-59
2023/06/22 04:54:33;;;;;;;8.35;6.10;;;;;;;;;;5036826;28;20063;-59
2023/06/22 04:57:04;;;;;;;10.07;6.53;;;;;;;;;;5032902;28;20118;-59
2023/06/22 04:59:31;;;;;;;8.18;6.00;;;;;;;;;;5033538;28;20025;-60
2023/06/22 05:02:01;;;;;;;8.02;5.97;;;;;;;;;;5046810;28;20040;-59
2023/06/22 05:04:28;;;;;;;6.57;5.72;;;;;;;;;;5053335;28;20025;-60
2023/06/22 05:06:54;;;;;;;7.57;6.38;;;;;;;;;;5054778;28;20045;-59
2023/06/22 05:09:20;;;;;;;7.65;6.30;;;;;;;;;;5053412;28;20036;-60
2023/06/22 05:11:46;;;;;;;6.25;5.55;;;;;;;;;;5054225;28;20039;-60
2023/06/22 05:14:13;;;;;;;9.20;6.75;;;;;;;;;;5054369;28;20381;-60
2023/06/22 05:16:40;;;;;;;7.82;5.68;;;;;;;;;;5054461;28;20029;-59
2023/06/22 05:19:06;;;;;;;9.93;6.30;;;;;;;;;;5051981;28;20555;-60
2023/06/22 05:21:32;;;;;;;9.20;6.10;;;;;;;;;;5053290;28;20033;-59
2023/06/22 05:24:02;;;;;;;7.50;6.13;;;;;;;;;;5054410;28;20029;-61
2023/06/22 05:26:29;;;;;;;8.80;6.32;;;;;;;;;;5054321;28;20406;-60
2023/06/22 05:28:55;;;;;;;8.05;6.28;;;;;;;;;;5052649;28;20060;-59
2023/06/22 05:31:20;;;;;;;6.97;5.65;;;;;;;;;;5052994;28;20029;-60
2023/06/22 05:33:47;;;;;;;6.78;6.07;;;;;;;;;;5053920;28;20028;-59
2023/06/22 05:36:13;;;;;;;8.80;6.20;;;;;;;;;;5054121;28;20028;-60
2023/06/22 05:38:40;;;;;;;7.95;5.90;;;;;;;;;;5053802;28;20029;-59
2023/06/22 05:41:08;;;;;;;7.70;6.20;;;;;;;;;;5053563;28;20013;-62
2023/06/22 05:43:34;;;;;;;7.22;5.55;;;;;;;;;;5052142;28;20043;-61
2023/06/22 05:46:01;;;;;;;6.70;6.00;;;;;;;;;;5053121;28;20082;-60
2023/06/22 05:48:27;;;;;;;7.63;5.82;;;;;;;;;;5053231;28;20013;-60
2023/06/22 05:50:53;;;;;;;7.07;5.65;;;;;;;;;;5053591;28;20036;-61
2023/06/22 05:53:19;;;;;;;6.53;5.80;;;;;;;;;;5052212;28;20463;-61
2023/06/22 05:55:45;;;;;;;6.75;6.00;;;;;;;;;;5052123;28;20033;-61
2023/06/22 05:58:11;;;;;;;6.75;5.70;;;;;;;;;;5046005;28;20041;-60
2023/06/22 06:00:37;;;;;;;8.57;6.18;;;;;;;;;;5049546;28;20021;-59
2023/06/22 06:03:03;;;;;;;8.48;5.90;;;;;;;;;;5050618;28;20025;-60
2023/06/22 06:05:30;;;;;;;6.95;5.78;;;;;;;;;;5041378;28;20377;-62
2023/06/22 06:07:56;;;;;;;9.57;5.88;;;;;;;;;;5032039;28;20037;-61
2023/06/22 06:10:21;;;;;;;6.50;5.90;;;;;;;;;;5046079;28;20090;-61
2023/06/22 06:12:47;;;;;;;7.43;6.05;;;;;;;;;;5051570;28;20048;-61
2023/06/22 06:15:12;;;;;;;7.00;6.20;;;;;;;;;;5051635;28;20033;-59
2023/06/22 06:17:52;;;;;;;7.05;5.50;;;;;;;;;;5050070;28;20033;-60
2023/06/22 06:20:22;;;;;;;7.03;6.25;;;;;;;;;;5051668;28;20063;-61
2023/06/22 06:22:48;;;;;;;6.95;6.20;;;;;;;;;;5051458;28;20037;-60
2023/06/22 06:25:18;;;;;;;7.18;5.90;;;;;;;;;;5050050;28;20106;-59
2023/06/22 06:27:45;;;;;;;5.70;5.20;;;;;;;;;;5051662;28;20048;-59
2023/06/22 06:30:12;;;;;;;6.35;5.75;;;;;;;;;;5051251;28;20028;-60
2023/06/22 06:32:38;;;;;;;6.97;5.70;;;;;;;;;;5050888;28;20052;-61
2023/06/22 06:35:08;;;;;;;6.82;5.90;;;;;;;;;;5051286;28;20033;-61
2023/06/22 06:37:38;;;;;;;6.38;5.75;;;;;;;;;;5051277;28;20033;-60
2023/06/22 06:40:10;;;;;;;6.82;5.97;;;;;;;;;;5051000;28;20052;-61
2023/06/22 06:42:37;;;;;;;8.57;6.00;;;;;;;;;;5050745;28;20546;-61
2023/06/22 06:45:05;;;;;;;7.47;5.70;;;;;;;;;;5050833;28;20036;-59
2023/06/22 06:47:30;;;;;;;6.63;5.75;;;;;;;;;;5051111;28;20523;-60
2023/06/22 06:49:56;;;;;;;6.63;5.93;;;;;;;;;;5050903;28;20029;-59
2023/06/22 06:52:23;;;;;;;8.32;5.95;;;;;;;;;;5051019;28;20124;-59
2023/06/22 06:54:48;;;;;;;7.72;5.57;;;;;;;;;;5050801;28;20307;-61
2023/06/22 06:57:15;;;;;;;7.93;5.55;;;;;;;;;;5050799;28;20090;-59
2023/06/22 06:59:41;;;;;;;7.15;5.55;;;;;;;;;;5051023;28;20036;-59
2023/06/22 07:02:07;;;;;;;6.85;5.95;;;;;;;;;;5050791;28;20066;-59
2023/06/22 07:04:33;;;;;;;6.10;5.50;;;;;;;;;;5050858;28;20044;-59
2023/06/22 07:07:01;;;;;;;6.28;5.68;;;;;;;;;;5051052;28;20028;-59
2023/06/22 07:09:26;;;;;;;6.57;5.45;;;;;;;;;;5050670;28;20036;-59
2023/06/22 07:11:52;;;;;;;7.18;5.60;;;;;;;;;;5050715;28;20029;-60
2023/06/22 07:14:18;;;;;;;6.53;5.47;;;;;;;;;;5050678;28;20032;-59
2023/06/22 07:16:43;;;;;;;5.80;5.30;;;;;;;;;;5050357;28;20036;-60
2023/06/22 07:19:12;;;;;;;6.20;5.47;;;;;;;;;;5049316;28;20129;-59
2023/06/22 07:21:37;;;;;;;7.05;5.38;;;;;;;;;;5049225;28;20495;-59
2023/06/22 07:24:05;;;;;;;5.88;5.15;;;;;;;;;;5050861;28;20068;-60
2023/06/22 07:26:31;;;;;;;6.38;5.72;;;;;;;;;;5048020;28;20035;-59
2023/06/22 07:28:57;;;;;;;6.32;5.72;;;;;;;;;;5049815;28;20037;-61
2023/06/22 07:31:25;;;;;;;9.30;5.70;;;;;;;;;;5050395;28;20021;-61
2023/06/22 07:33:50;;;;;;;6.63;5.47;;;;;;;;;;5039737;28;20044;-60
2023/06/22 07:36:17;;;;;;;6.13;5.47;;;;;;;;;;5029874;28;20402;-59
2023/06/22 07:38:43;;;;;;;5.63;5.10;;;;;;;;;;5029281;28;20091;-61
2023/06/22 07:41:09;;;;;;;6.47;5.68;;;;;;;;;;5030024;28;20454;-59
2023/06/22 07:43:36;;;;;;;6.97;5.43;;;;;;;;;;5030628;28;20162;-60
2023/06/22 07:46:03;;;;;;;5.88;5.28;;;;;;;;;;5030522;28;20112;-60
2023/06/22 07:48:29;;;;;;;6.03;5.38;;;;;;;;;;5030439;28;20030;-59
2023/06/22 07:50:55;;;;;;;6.55;5.30;;;;;;;;;;5030435;28;20028;-61
2023/06/22 07:53:21;;;;;;;7.28;5.40;;;;;;;;;;5030478;28;20032;-60
2023/06/22 07:55:47;;;;;;;6.57;5.50;;;;;;;;;;5032558;28;20029;-59
2023/06/22 07:58:13;;;;;;;6.13;5.53;;;;;;;;;;5034229;28;20036;-59
2023/06/22 08:00:38;;;;;;;6.03;5.15;;;;;;;;;;5034266;28;20105;-58
2023/06/22 08:03:05;;;;;;;6.03;5.30;;;;;;;;;;5032889;28;20381;-60
2023/06/22 08:05:31;;;;;;;5.95;5.32;;;;;;;;;;5034298;28;20083;-60
2023/06/22 08:07:57;;;;;;;6.28;5.55;;;;;;;;;;5034188;28;20503;-59
2023/06/22 08:10:22;;;;;;;7.65;5.20;;;;;;;;;;5034085;28;20064;-61
2023/06/22 08:12:48;;;;;;;5.88;5.30;;;;;;;;;;5032595;28;20029;-59
2023/06/22 08:15:14;;;;;;;5.97;5.38;;;;;;;;;;5033926;28;20082;-60
2023/06/22 08:17:40;;;;;;;5.95;5.18;;;;;;;;;;5047602;28;20033;-58
